Time;durP1;ratioP1;P1;durP2;ratioP2;P2;SDS_P1;SDS_P2;PMS_P1;PMS_P2;Temp;Humidity;BMP_temperature;BMP_pressure;BME280_temperature;BME280_humidity;BME280_pressure;Samples;Min_cycle;Max_cycle;Signal;HPM_P1;HPM_P2
2022/07/07 00:00:54;;;;;;;4.28;1.38;;;;;;;20.29;47.33;100536.44;5029803;28;20044;-72
2022/07/07 00:03:20;;;;;;;1.65;1.35;;;;;;;20.27;47.35;100541.22;5049182;28;20052;-71
2022/07/07 00:05:45;;;;;;;1.50;1.20;;;;;;;20.13;47.47;100523.91;5049612;28;20021;-70
2022/07/07 00:08:11;;;;;;;2.30;1.70;;;;;;;20.17;47.60;100545.13;5045244;28;20486;-71
2022/07/07 00:10:36;;;;;;;5.22;1.40;;;;;;;20.14;47.89;100550.94;5029383;28;20036;-71
2022/07/07 00:13:02;;;;;;;2.58;1.25;;;;;;;20.11;48.12;100556.78;5029454;28;20043;-71
2022/07/07 00:15:28;;;;;;;2.85;1.40;;;;;;;20.01;48.45;100550.75;5028422;28;20025;-72
2022/07/07 00:17:53;;;;;;;2.15;1.15;;;;;;;20.00;48.54;100545.50;5029417;28;20476;-71
2022/07/07 00:20:19;;;;;;;1.85;1.40;;;;;;;20.01;48.89;100552.63;5028226;28;20029;-70
2022/07/07 00:22:44;;;;;;;6.45;1.88;;;;;;;19.81;49.17;100519.69;5039624;28;20111;-71
2022/07/07 00:25:10;;;;;;;6.40;1.83;;;;;;;19.94;49.64;100548.97;5049064;28;20069;-70
2022/07/07 00:27:35;;;;;;;3.50;2.08;;;;;;;19.89;49.73;100540.50;5048885;28;20036;-70
2022/07/07 00:30:01;;;;;;;2.05;1.50;;;;;;;19.77;49.88;100529.25;5049186;28;20112;-70
2022/07/07 00:32:26;;;;;;;7.43;1.80;;;;;;;19.74;50.22;100535.06;5029441;28;20041;-71
2022/07/07 00:34:51;;;;;;;3.05;1.58;;;;;;;19.66;50.43;100534.31;5029045;28;20033;-70
2022/07/07 00:37:17;;;;;;;5.13;1.73;;;;;;;19.54;50.95;100531.22;5029332;28;20025;-71
2022/07/07 00:39:42;;;;;;;2.35;1.60;;;;;;;19.51;51.20;100530.78;5046347;28;20468;-71
2022/07/07 00:42:14;;;;;;;2.63;1.92;;;;;;;19.44;51.40;100529.81;5048900;28;20081;-70
2022/07/07 00:44:39;;;;;;;1.83;1.48;;;;;;;19.32;51.89;100523.97;5048680;28;20032;-70
2022/07/07 00:47:05;;;;;;;3.92;1.63;;;;;;;19.29;52.44;100521.66;5048879;28;20032;-71
2022/07/07 00:49:32;;;;;;;3.38;1.70;;;;;;;19.25;52.85;100523.00;5048935;28;20357;-71
2022/07/07 00:51:58;;;;;;;5.15;1.80;;;;;;;19.21;53.01;100532.56;5036184;28;20032;-71
2022/07/07 00:54:24;;;;;;;2.65;2.13;;;;;;;19.19;53.16;100526.44;5048602;28;20048;-70
2022/07/07 00:56:50;;;;;;;8.13;2.00;;;;;;;19.14;53.58;100526.19;5041753;28;20025;-71
2022/07/07 00:59:16;;;;;;;2.05;1.80;;;;;;;19.13;54.15;100529.09;5038295;28;20033;-70
2022/07/07 01:01:43;;;;;;;2.22;2.08;;;;;;;19.09;54.30;100535.91;5031658;28;20398;-70
2022/07/07 01:04:11;;;;;;;3.40;2.05;;;;;;;19.05;54.72;100526.41;5032929;28;20029;-71
2022/07/07 01:06:38;;;;;;;2.75;1.88;;;;;;;18.99;54.95;100532.63;5039313;28;20167;-70
2022/07/07 01:09:04;;;;;;;4.90;2.85;;;;;;;18.96;55.19;100535.69;5052812;28;20029;-71
2022/07/07 01:11:52;;;;;;;3.83;2.15;;;;;;;18.95;55.49;100536.69;5052760;28;20449;-71
2022/07/07 01:14:19;;;;;;;4.43;2.03;;;;;;;18.91;55.85;100530.81;5031927;28;20029;-70
2022/07/07 01:16:46;;;;;;;3.03;2.35;;;;;;;18.89;56.48;100534.75;5032790;28;20090;-70
2022/07/07 01:19:11;;;;;;;2.70;2.50;;;;;;;18.91;57.17;100540.81;5032924;28;20163;-71
2022/07/07 01:21:52;;;;;;;2.53;2.30;;;;;;;18.80;57.47;100524.97;5052426;28;20127;-71
2022/07/07 01:24:19;;;;;;;2.92;1.92;;;;;;;18.81;57.99;100532.06;5052385;28;20043;-71
2022/07/07 01:26:44;;;;;;;3.58;2.25;;;;;;;18.76;58.38;100543.50;5052509;28;20029;-71
2022/07/07 01:29:10;;;;;;;2.90;2.22;;;;;;;18.72;58.61;100539.44;5052503;28;20025;-71
2022/07/07 01:31:36;;;;;;;4.18;2.70;;;;;;;18.65;59.06;100538.50;5041560;28;20221;-71
2022/07/07 01:34:01;;;;;;;3.65;2.83;;;;;;;18.63;60.08;100545.97;5036199;28;20067;-70
2022/07/07 01:36:27;;;;;;;2.95;2.35;;;;;;;18.61;60.47;100550.75;5052121;28;20028;-71
2022/07/07 01:38:52;;;;;;;5.15;3.03;;;;;;;18.44;60.50;100513.84;5051997;28;20530;-72
2022/07/07 01:41:18;;;;;;;4.00;2.95;;;;;;;18.59;60.39;100544.63;5052325;28;20036;-71
2022/07/07 01:43:43;;;;;;;3.15;2.85;;;;;;;18.50;60.94;100528.59;5052050;28;20056;-70
2022/07/07 01:46:08;;;;;;;6.28;2.83;;;;;;;18.60;61.47;100540.88;5043378;28;20033;-71
2022/07/07 01:48:34;;;;;;;5.35;3.25;;;;;;;18.46;61.67;100525.38;5034657;28;20033;-71
2022/07/07 01:51:00;;;;;;;3.70;2.83;;;;;;;18.54;61.85;100557.91;5031943;28;20040;-71
2022/07/07 01:53:25;;;;;;;4.00;3.13;;;;;;;18.50;62.38;100547.59;5032033;28;20123;-70
2022/07/07 01:55:51;;;;;;;3.53;3.05;;;;;;;18.42;63.07;100550.34;5031485;28;20060;-71
2022/07/07 01:58:16;;;;;;;5.30;3.65;;;;;;;18.38;63.51;100555.28;5031804;28;20025;-70
2022/07/07 02:00:42;;;;;;;3.95;3.50;;;;;;;18.27;64.19;100558.38;5031569;28;20033;-71
2022/07/07 02:03:07;;;;;;;7.63;3.97;;;;;;;18.22;64.77;100549.94;5032386;28;20033;-71
2022/07/07 02:05:33;;;;;;;5.38;3.75;;;;;;;18.13;65.68;100545.56;5031505;28;20086;-72
2022/07/07 02:07:58;;;;;;;5.45;3.55;;;;;;;18.15;65.83;100565.22;5030996;28;20045;-71
2022/07/07 02:13:07;;;;;;;6.00;4.07;;;;;;;18.08;66.82;100561.53;5029891;28;20036;-71
2022/07/07 02:15:33;;;;;;;6.15;4.15;;;;;;;17.95;67.40;100550.41;5030525;28;20391;-72
2022/07/07 02:17:59;;;;;;;6.95;4.55;;;;;;;17.92;67.76;100550.75;5033869;28;20029;-72
2022/07/07 02:20:25;;;;;;;6.72;4.20;;;;;;;18.01;67.98;100568.69;5032056;28;20036;-71
2022/07/07 02:22:50;;;;;;;6.05;4.60;;;;;;;17.98;68.50;100571.75;5030973;28;20539;-72
2022/07/07 02:25:16;;;;;;;6.15;4.28;;;;;;;18.01;68.08;100577.69;5033621;28;20083;-71
2022/07/07 02:27:41;;;;;;;7.18;4.03;;;;;;;17.98;68.27;100577.19;5040475;28;20068;-70
2022/07/07 02:30:07;;;;;;;4.68;4.28;;;;;;;17.95;68.45;100582.97;5029662;28;20079;-71
2022/07/07 02:32:33;;;;;;;6.38;5.03;;;;;;;17.90;68.43;100579.94;5030881;28;20029;-69
2022/07/07 02:34:59;;;;;;;5.75;4.53;;;;;;;17.88;69.62;100581.97;5030932;28;20033;-71
2022/07/07 02:37:25;;;;;;;7.63;4.35;;;;;;;17.75;70.38;100559.97;5030638;28;20476;-72
2022/07/07 02:39:51;;;;;;;6.95;4.88;;;;;;;17.76;70.18;100567.09;5030546;28;20025;-71
2022/07/07 02:42:17;;;;;;;4.93;4.32;;;;;;;17.71;70.57;100572.22;5032005;28;20017;-71
2022/07/07 02:44:42;;;;;;;6.28;4.55;;;;;;;17.68;70.93;100564.41;5033837;28;20065;-72
2022/07/07 02:47:08;;;;;;;6.03;4.78;;;;;;;17.71;71.43;100578.47;5030878;28;20506;-72
2022/07/07 02:49:34;;;;;;;7.18;4.25;;;;;;;17.69;71.24;100579.66;5036783;28;20115;-71
2022/07/07 02:51:59;;;;;;;7.60;4.22;;;;;;;17.59;71.26;100568.16;5041022;28;20029;-71
2022/07/07 02:54:25;;;;;;;5.35;4.15;;;;;;;17.61;70.85;100571.56;5030831;28;20510;-70
2022/07/07 02:56:50;;;;;;;6.75;4.80;;;;;;;17.62;70.85;100578.66;5031590;28;20025;-71
2022/07/07 02:59:16;;;;;;;7.38;4.85;;;;;;;17.43;71.17;100557.34;5045745;28;20044;-71
2022/07/07 03:01:41;;;;;;;5.35;4.85;;;;;;;17.52;71.59;100578.03;5050662;28;20037;-70
2022/07/07 03:04:07;;;;;;;5.05;4.07;;;;;;;17.57;71.72;100586.47;5031912;28;20028;-71
2022/07/07 03:06:32;;;;;;;6.72;4.65;;;;;;;17.52;71.99;100580.72;5031258;28;20029;-71
2022/07/07 03:08:58;;;;;;;5.68;5.05;;;;;;;17.58;72.28;100591.72;5030803;28;20245;-71
2022/07/07 03:11:23;;;;;;;6.95;5.32;;;;;;;17.51;72.24;100576.34;5030599;28;20033;-71
2022/07/07 03:13:49;;;;;;;8.32;5.00;;;;;;;17.63;71.97;100594.78;5030532;28;20061;-71
2022/07/07 03:16:14;;;;;;;8.05;4.97;;;;;;;17.63;72.02;100586.63;5030734;28;20083;-71
2022/07/07 03:18:39;;;;;;;6.82;5.40;;;;;;;17.60;72.90;100589.69;5029622;28;20029;-73
2022/07/07 03:21:05;;;;;;;7.03;5.28;;;;;;;17.57;73.09;100587.31;5048635;28;20531;-71
2022/07/07 03:23:30;;;;;;;8.13;5.40;;;;;;;17.49;74.04;100575.66;5050275;28;20033;-71
2022/07/07 03:25:56;;;;;;;13.25;5.78;;;;;;;17.47;74.11;100570.41;5049958;28;20399;-70
2022/07/07 03:28:21;;;;;;;11.65;5.88;;;;;;;17.52;75.15;100594.28;5050290;28;20036;-72
2022/07/07 03:30:47;;;;;;;8.93;5.88;;;;;;;17.49;75.44;100594.63;5040451;28;20029;-71
2022/07/07 03:33:12;;;;;;;8.30;6.03;;;;;;;17.47;75.53;100593.94;5030324;28;20033;-71
2022/07/07 03:35:39;;;;;;;11.90;5.38;;;;;;;17.48;76.28;100601.91;5028919;28;20028;-72
2022/07/07 03:38:05;;;;;;;8.32;5.25;;;;;;;17.47;76.10;100600.22;5034678;28;20033;-71
2022/07/07 03:40:30;;;;;;;21.15;6.30;;;;;;;17.47;75.94;100599.38;5049970;28;20478;-71
2022/07/07 03:42:56;;;;;;;9.20;5.50;;;;;;;17.65;75.97;100619.00;5049897;28;20033;-72
2022/07/07 03:45:22;;;;;;;8.15;5.18;;;;;;;17.67;75.89;100603.44;5047501;28;20033;-71
2022/07/07 03:47:50;;;;;;;9.02;5.70;;;;;;;17.78;75.52;100605.75;5049691;28;20360;-72
2022/07/07 03:50:15;;;;;;;9.73;6.28;;;;;;;17.89;74.86;100594.53;5050012;28;20037;-71
2022/07/07 03:52:41;;;;;;;6.28;5.30;;;;;;;18.00;74.20;100605.00;5050025;28;20077;-71
2022/07/07 03:55:07;;;;;;;6.68;5.97;;;;;;;18.01;73.53;100580.41;5032691;28;20042;-71
2022/07/07 03:57:33;;;;;;;9.43;6.75;;;;;;;18.20;73.65;100603.56;5041140;28;20032;-70
2022/07/07 03:59:58;;;;;;;7.40;6.07;;;;;;;18.32;72.96;100604.03;5049442;28;20048;-70
2022/07/07 04:02:24;;;;;;;7.53;5.80;;;;;;;18.45;72.53;100602.47;5047274;28;20025;-71
2022/07/07 04:04:49;;;;;;;11.63;6.00;;;;;;;18.59;72.07;100603.56;5037873;28;20029;-71
2022/07/07 04:07:16;;;;;;;11.52;6.68;;;;;;;18.73;71.85;100600.91;5029903;28;20049;-71
2022/07/07 04:09:41;;;;;;;15.77;5.63;;;;;;;18.87;71.16;100599.31;5029399;28;20420;-71
2022/07/07 04:12:08;;;;;;;10.75;5.57;;;;;;;18.97;70.79;100597.19;5028321;28;20057;-65
2022/07/07 04:14:33;;;;;;;7.78;6.05;;;;;;;19.16;70.42;100604.84;5027966;28;20462;-64
2022/07/07 04:16:58;;;;;;;10.98;5.40;;;;;;;19.35;69.68;100602.50;5044370;28;20060;-64
2022/07/07 04:19:24;;;;;;;7.70;5.40;;;;;;;19.45;68.86;100600.34;5037763;28;20029;-64
2022/07/07 04:21:49;;;;;;;7.32;5.43;;;;;;;19.61;68.58;100602.91;5029141;28;20037;-63
2022/07/07 04:24:15;;;;;;;12.55;5.25;;;;;;;19.74;68.02;100596.84;5029208;28;20041;-64
2022/07/07 04:26:40;;;;;;;8.15;5.28;;;;;;;19.84;67.99;100597.41;5040419;28;20033;-63
2022/07/07 04:29:06;;;;;;;5.97;4.82;;;;;;;19.87;67.23;100589.69;5028731;28;20119;-71
2022/07/07 04:31:31;;;;;;;7.07;5.22;;;;;;;20.01;66.62;100583.41;5028960;28;20044;-71
2022/07/07 04:33:57;;;;;;;9.57;5.00;;;;;;;20.24;66.05;100596.13;5028990;28;20479;-71
2022/07/07 04:36:22;;;;;;;10.75;5.22;;;;;;;20.39;65.62;100595.06;5041529;28;20451;-70
2022/07/07 04:38:48;;;;;;;10.13;5.25;;;;;;;20.54;64.97;100592.28;5028409;28;20029;-70
2022/07/07 04:41:13;;;;;;;5.22;4.47;;;;;;;20.64;64.84;100577.31;5029760;28;20753;-73
2022/07/07 04:43:39;;;;;;;6.47;5.07;;;;;;;20.83;63.49;100597.66;5029055;28;20468;-72
2022/07/07 04:46:04;;;;;;;5.68;4.25;;;;;;;20.93;63.09;100590.81;5031314;28;20859;-70
2022/07/07 04:48:30;;;;;;;7.38;4.35;;;;;;;21.08;62.42;100583.47;5028926;28;20033;-70
2022/07/07 04:50:55;;;;;;;6.60;4.07;;;;;;;21.20;61.78;100589.22;5028918;28;20036;-70
2022/07/07 04:53:21;;;;;;;9.30;4.68;;;;;;;21.35;61.19;100590.00;5029684;28;20045;-71
2022/07/07 04:55:46;;;;;;;12.20;3.90;;;;;;;21.47;60.83;100588.44;5029926;28;20056;-71
2022/07/07 04:58:14;;;;;;;11.60;4.35;;;;;;;21.60;59.84;100593.97;5031072;28;20036;-70
2022/07/07 05:00:40;;;;;;;7.05;3.88;;;;;;;21.70;58.78;100587.09;5033116;28;20399;-70
2022/07/07 05:03:05;;;;;;;7.32;4.07;;;;;;;21.83;58.36;100581.75;5028416;28;20035;-70
2022/07/07 05:05:31;;;;;;;5.63;4.32;;;;;;;21.93;57.97;100582.25;5030067;28;20029;-70
2022/07/07 05:07:57;;;;;;;13.25;4.47;;;;;;;22.09;57.68;100590.09;5031130;28;20079;-70
2022/07/07 05:10:22;;;;;;;7.97;4.57;;;;;;;22.20;57.17;100586.81;5028012;28;20108;-70
2022/07/07 05:12:48;;;;;;;7.45;3.75;;;;;;;22.33;56.90;100586.88;5036324;28;20033;-70
2022/07/07 05:15:13;;;;;;;8.55;3.75;;;;;;;22.46;56.42;100583.34;5028496;28;20022;-70
2022/07/07 05:17:38;;;;;;;11.15;3.88;;;;;;;22.47;55.58;100565.06;5033122;28;20392;-71
2022/07/07 05:20:04;;;;;;;7.55;4.05;;;;;;;22.74;54.83;100584.09;5046785;28;20399;-70
2022/07/07 05:22:30;;;;;;;6.57;3.33;;;;;;;22.85;54.84;100578.00;5039221;28;20120;-70
2022/07/07 05:24:55;;;;;;;7.32;3.55;;;;;;;23.04;54.44;100577.22;5032537;28;20467;-70
2022/07/07 05:27:21;;;;;;;7.75;3.63;;;;;;;23.21;54.05;100592.16;5048466;28;20037;-70
2022/07/07 05:29:46;;;;;;;6.47;3.40;;;;;;;23.35;53.68;100582.09;5048606;28;20037;-71
2022/07/07 05:32:11;;;;;;;7.20;3.67;;;;;;;23.31;52.37;100559.75;5048357;28;20044;-71
2022/07/07 05:34:37;;;;;;;6.35;3.45;;;;;;;23.57;52.27;100580.84;5047162;28;20035;-70
2022/07/07 05:37:02;;;;;;;6.05;3.20;;;;;;;23.71;52.15;100590.72;5046299;28;20052;-71
2022/07/07 05:39:30;;;;;;;7.65;3.92;;;;;;;23.78;50.93;100591.53;5045631;28;20044;-71
2022/07/07 05:41:55;;;;;;;3.78;2.70;;;;;;;23.83;50.60;100589.84;5049739;28;20035;-70
2022/07/07 05:44:21;;;;;;;6.07;3.65;;;;;;;23.84;50.36;100588.81;5052275;28;20028;-71
2022/07/07 05:46:46;;;;;;;6.82;3.63;;;;;;;23.89;50.14;100588.16;5052138;28;20036;-70
2022/07/07 05:49:12;;;;;;;7.43;3.40;;;;;;;24.00;50.11;100601.22;5052068;28;20471;-71
2022/07/07 05:51:37;;;;;;;4.97;3.03;;;;;;;24.07;49.95;100602.91;5052074;28;20041;-71
2022/07/07 05:54:03;;;;;;;10.45;3.30;;;;;;;24.20;49.55;100599.28;5051710;28;20040;-71
2022/07/07 05:56:28;;;;;;;8.02;3.13;;;;;;;24.24;49.36;100603.25;5051794;28;20483;-71
2022/07/07 05:58:54;;;;;;;5.85;3.17;;;;;;;24.31;49.08;100596.69;5051550;28;20114;-71
2022/07/07 06:01:19;;;;;;;9.38;3.17;;;;;;;24.38;48.50;100586.53;5051989;28;20035;-71
2022/07/07 06:03:44;;;;;;;5.43;2.95;;;;;;;24.50;48.43;100586.69;5051782;28;20032;-70
2022/07/07 06:06:10;;;;;;;2.70;2.50;;;;;;;24.63;48.13;100594.84;5038594;28;20164;-72
2022/07/07 06:08:35;;;;;;;3.58;2.67;;;;;;;24.73;47.34;100591.69;5032039;28;20029;-72
2022/07/07 06:11:01;;;;;;;3.03;2.63;;;;;;;24.75;47.01;100573.09;5031692;28;20036;-70
2022/07/07 06:13:26;;;;;;;4.70;2.58;;;;;;;24.99;46.66;100586.03;5034847;28;20029;-72
2022/07/07 06:15:52;;;;;;;5.55;3.00;;;;;;;25.06;46.61;100592.31;5051765;28;20029;-72
2022/07/07 06:18:17;;;;;;;4.28;2.53;;;;;;;25.18;46.58;100588.63;5051703;28;20495;-70
2022/07/07 06:20:43;;;;;;;4.57;3.00;;;;;;;25.29;46.20;100596.19;5051502;28;20372;-71
2022/07/07 06:23:09;;;;;;;6.22;2.70;;;;;;;25.28;45.23;100579.91;5041315;28;20447;-72
2022/07/07 06:25:35;;;;;;;5.07;2.80;;;;;;;25.44;45.08;100590.38;5030241;28;20064;-72
2022/07/07 06:28:00;;;;;;;4.63;2.20;;;;;;;25.54;44.98;100593.47;5031226;28;20037;-71
2022/07/07 06:30:26;;;;;;;4.93;2.30;;;;;;;25.64;44.98;100602.88;5031520;28;20029;-72
2022/07/07 06:32:52;;;;;;;2.45;2.25;;;;;;;25.65;44.55;100578.97;5031432;28;20029;-72
2022/07/07 06:35:20;;;;;;;5.63;2.47;;;;;;;25.76;44.17;100592.81;5031570;28;20044;-72
2022/07/07 06:37:46;;;;;;;4.18;2.65;;;;;;;25.83;44.32;100601.00;5033356;28;20024;-64
2022/07/07 06:40:12;;;;;;;3.33;2.40;;;;;;;25.81;43.91;100583.88;5043721;28;20033;-63
2022/07/07 06:42:37;;;;;;;4.80;2.38;;;;;;;25.97;43.58;100597.09;5031321;28;20453;-63
2022/07/07 06:45:04;;;;;;;2.47;2.28;;;;;;;26.07;43.49;100597.41;5044084;28;20416;-65
2022/07/07 06:47:30;;;;;;;3.42;2.40;;;;;;;26.19;42.93;100593.66;5031176;28;20033;-64
2022/07/07 06:49:55;;;;;;;3.60;2.55;;;;;;;26.21;43.08;100571.41;5048833;28;20037;-64
2022/07/07 06:52:21;;;;;;;6.53;2.35;;;;;;;26.35;42.65;100570.19;5049640;28;20029;-65
2022/07/07 06:54:46;;;;;;;7.10;2.65;;;;;;;26.46;42.45;100581.25;5029886;28;20088;-64
2022/07/07 06:57:12;;;;;;;2.55;2.03;;;;;;;26.52;42.14;100579.50;5038320;28;20687;-62
2022/07/07 06:59:37;;;;;;;2.67;2.30;;;;;;;26.57;42.17;100571.41;5050797;28;20039;-64
2022/07/07 07:02:04;;;;;;;6.80;2.40;;;;;;;26.72;41.71;100582.84;5031963;28;20021;-63
2022/07/07 07:04:29;;;;;;;4.80;2.45;;;;;;;26.80;42.12;100581.69;5030831;28;20128;-64
2022/07/07 07:06:55;;;;;;;2.17;1.92;;;;;;;26.81;41.75;100559.44;5030691;28;20021;-64
2022/07/07 07:09:20;;;;;;;5.10;2.40;;;;;;;26.93;41.37;100570.47;5033587;28;20037;-64
2022/07/07 07:11:46;;;;;;;2.45;1.77;;;;;;;27.04;41.37;100573.28;5040934;28;20029;-63
2022/07/07 07:14:13;;;;;;;4.78;2.35;;;;;;;27.11;41.34;100579.50;5050484;28;20509;-64
2022/07/07 07:16:39;;;;;;;4.15;2.20;;;;;;;27.23;40.73;100583.19;5050457;28;20050;-63
2022/07/07 07:19:04;;;;;;;5.15;2.20;;;;;;;27.19;41.24;100575.59;5050273;28;20105;-63
2022/07/07 07:21:30;;;;;;;2.42;2.17;;;;;;;27.22;41.62;100575.97;5050643;28;20032;-64
2022/07/07 07:23:55;;;;;;;2.13;1.98;;;;;;;27.16;40.63;100552.13;5044052;28;20139;-63
2022/07/07 07:26:21;;;;;;;4.13;2.10;;;;;;;27.28;41.16;100565.94;5030441;28;20037;-64
2022/07/07 07:28:47;;;;;;;2.50;2.30;;;;;;;27.36;40.88;100576.59;5030608;28;20378;-64
2022/07/07 07:31:12;;;;;;;5.57;1.95;;;;;;;27.42;40.46;100582.00;5030547;28;20112;-64
2022/07/07 07:33:38;;;;;;;4.60;1.95;;;;;;;27.45;39.90;100577.94;5036251;28;20455;-63
2022/07/07 07:36:07;;;;;;;2.83;1.85;;;;;;;27.48;40.08;100574.69;5032320;28;20029;-63
2022/07/07 07:38:35;;;;;;;5.35;2.50;;;;;;;27.53;40.44;100575.66;5042680;28;20442;-63
2022/07/07 07:41:05;;;;;;;4.47;2.00;;;;;;;27.56;40.23;100575.19;5039513;28;20040;-63
2022/07/07 07:43:30;;;;;;;2.80;2.13;;;;;;;27.62;40.31;100571.47;5050001;28;20037;-64
2022/07/07 07:45:56;;;;;;;3.38;2.20;;;;;;;27.68;40.06;100578.78;5031658;28;20033;-63
2022/07/07 07:48:21;;;;;;;2.78;2.22;;;;;;;27.74;39.65;100574.22;5032981;28;20037;-63
2022/07/07 07:50:47;;;;;;;8.18;2.20;;;;;;;27.69;39.31;100574.94;5044262;28;20029;-63
2022/07/07 07:53:12;;;;;;;4.30;2.30;;;;;;;27.60;39.39;100554.31;5044362;28;20045;-64
2022/07/07 07:55:38;;;;;;;5.07;1.95;;;;;;;27.72;39.60;100571.72;5038415;28;20044;-64
2022/07/07 07:58:05;;;;;;;6.07;1.98;;;;;;;27.82;39.49;100571.94;5039027;28;20036;-64
2022/07/07 08:00:31;;;;;;;2.03;1.83;;;;;;;27.89;39.22;100577.41;5038477;28;20036;-63
2022/07/07 08:02:56;;;;;;;2.65;2.00;;;;;;;27.91;38.76;100576.06;5029764;28;20384;-65
2022/07/07 08:05:22;;;;;;;2.10;1.85;;;;;;;27.93;38.11;100578.59;5033874;28;20071;-64
2022/07/07 08:07:47;;;;;;;3.50;1.80;;;;;;;28.03;38.32;100576.91;5038413;28;20112;-64
2022/07/07 08:10:15;;;;;;;5.22;1.80;;;;;;;28.13;38.05;100581.78;5036643;28;20051;-64
2022/07/07 08:12:42;;;;;;;1.65;1.55;;;;;;;28.12;37.71;100558.06;5033760;28;20055;-63
2022/07/07 08:15:09;;;;;;;6.35;1.90;;;;;;;28.33;37.81;100574.78;5029583;28;20586;-62
2022/07/07 08:17:34;;;;;;;6.18;2.10;;;;;;;28.38;38.28;100574.06;5040830;28;20021;-64
2022/07/07 08:20:00;;;;;;;4.97;2.30;;;;;;;28.40;38.27;100571.88;5049550;28;20044;-64
2022/07/07 08:22:26;;;;;;;15.25;2.50;;;;;;;28.45;37.97;100575.66;5049445;28;20116;-64
2022/07/07 08:24:52;;;;;;;6.22;1.90;;;;;;;28.42;38.28;100569.72;5030197;28;20043;-64
2022/07/07 08:27:18;;;;;;;17.58;2.85;;;;;;;28.49;38.12;100576.81;5033232;28;20036;-64
2022/07/07 08:29:43;;;;;;;7.88;2.20;;;;;;;28.51;37.73;100574.63;5030812;28;20025;-62
2022/07/07 08:32:10;;;;;;;3.28;2.17;;;;;;;28.56;37.96;100573.09;5036838;28;20071;-64
2022/07/07 08:34:37;;;;;;;4.15;1.88;;;;;;;28.62;37.92;100583.97;5026340;28;20120;-64
2022/07/07 08:37:03;;;;;;;5.50;1.77;;;;;;;28.66;37.74;100573.28;5039068;28;20040;-63
2022/07/07 08:39:28;;;;;;;5.95;2.22;;;;;;;28.75;37.25;100571.81;5048287;28;20078;-64
2022/07/07 08:41:54;;;;;;;3.90;1.63;;;;;;;28.56;37.68;100535.25;5037693;28;20034;-64
2022/07/07 08:44:20;;;;;;;3.40;1.77;;;;;;;28.75;37.51;100567.09;5033846;28;20031;-63
2022/07/07 08:46:46;;;;;;;3.97;1.80;;;;;;;28.78;37.56;100555.56;5031766;28;21014;-64
2022/07/07 08:49:11;;;;;;;3.78;2.00;;;;;;;28.74;36.97;100564.59;5044894;28;20098;-64
2022/07/07 08:51:41;;;;;;;5.70;2.00;;;;;;;28.72;36.88;100566.78;5039217;28;20017;-64
2022/07/07 08:54:09;;;;;;;5.18;2.10;;;;;;;28.68;35.79;100558.16;5027139;28;20535;-64
2022/07/07 08:56:35;;;;;;;2.75;1.88;;;;;;;28.65;36.18;100555.03;5036016;28;20120;-64
2022/07/07 08:59:02;;;;;;;3.65;1.65;;;;;;;28.63;36.49;100558.03;5036463;28;20032;-64
2022/07/07 09:01:27;;;;;;;5.03;1.88;;;;;;;28.59;36.42;100540.28;5038005;28;20057;-64
2022/07/07 09:03:53;;;;;;;3.83;1.60;;;;;;;28.64;35.97;100548.69;5048408;28;20099;-64
2022/07/07 09:06:19;;;;;;;5.38;1.85;;;;;;;28.65;35.70;100543.97;5033704;28;20036;-63
2022/07/07 09:08:44;;;;;;;2.13;1.50;;;;;;;28.70;35.89;100542.19;5032451;28;20020;-64
2022/07/07 09:11:10;;;;;;;6.65;2.08;;;;;;;28.71;36.17;100537.47;5038291;28;20495;-64
2022/07/07 09:13:36;;;;;;;3.42;1.90;;;;;;;28.78;35.58;100543.69;5032223;28;20395;-64
2022/07/07 09:16:07;;;;;;;4.53;1.77;;;;;;;28.75;35.54;100533.16;5048618;28;20025;-63
2022/07/07 09:18:37;;;;;;;4.15;1.70;;;;;;;28.78;34.49;100539.00;5032819;28;20034;-63
2022/07/07 09:21:06;;;;;;;5.90;1.77;;;;;;;28.79;34.88;100543.44;5048236;28;20029;-63
2022/07/07 09:23:32;;;;;;;2.28;1.63;;;;;;;28.85;34.80;100549.91;5040617;28;20045;-63
2022/07/07 09:25:59;;;;;;;4.60;1.50;;;;;;;28.99;32.84;100542.97;5050043;28;20025;-63
2022/07/07 09:28:26;;;;;;;2.35;1.67;;;;;;;28.93;33.16;100538.44;5035930;28;20029;-64
2022/07/07 09:30:53;;;;;;;4.20;1.33;;;;;;;28.99;32.52;100549.34;5043703;28;20030;-63
2022/07/07 09:33:20;;;;;;;4.97;1.63;;;;;;;29.03;33.02;100546.91;5042038;28;20035;-64
2022/07/07 09:38:33;;;;;;;4.60;1.50;;;;;;;29.13;33.46;100542.44;5043443;28;20495;-63
2022/07/07 09:41:05;;;;;;;5.18;1.88;;;;;;;29.18;33.46;100541.69;5038498;28;20026;-63
2022/07/07 09:43:49;;;;;;;4.78;1.45;;;;;;;29.09;32.89;100526.63;5049279;28;20387;-64
2022/07/07 09:46:25;;;;;;;5.32;1.55;;;;;;;29.22;31.77;100538.19;5032394;28;20036;-64
2022/07/07 09:48:58;;;;;;;3.10;1.50;;;;;;;29.19;31.45;100518.50;5042923;28;20036;-63
2022/07/07 09:51:33;;;;;;;2.28;1.30;;;;;;;29.30;31.45;100537.75;5040114;28;20037;-71
2022/07/07 09:54:06;;;;;;;5.60;1.67;;;;;;;29.32;30.70;100537.50;5045405;28;20523;-72
2022/07/07 09:56:37;;;;;;;3.25;1.50;;;;;;;29.11;31.57;100513.41;5046431;28;20045;-71
2022/07/07 09:59:08;;;;;;;7.53;1.70;;;;;;;29.20;31.77;100537.59;5044184;28;20427;-71
2022/07/07 10:01:42;;;;;;;2.08;1.60;;;;;;;29.16;31.19;100524.53;5037687;28;20021;-71
2022/07/07 10:04:09;;;;;;;;;;;;;;;29.11;31.31;100527.22;5036687;28;20055;-71
2022/07/07 10:06:37;;;;;;;2.10;1.45;;;;;;;29.01;31.55;100508.50;5048037;28;20338;-71
2022/07/07 10:09:18;;;;;;;2.25;1.48;;;;;;;29.17;31.75;100531.75;5031720;28;20034;-71
2022/07/07 10:11:46;;;;;;;2.53;1.50;;;;;;;29.24;31.75;100532.41;5031869;28;20103;-71
2022/07/07 10:14:20;;;;;;;1.77;1.58;;;;;;;29.21;31.69;100521.84;5031352;28;20025;-71
2022/07/07 10:16:48;;;;;;;4.45;1.52;;;;;;;29.20;31.45;100518.25;5034197;28;20028;-72
2022/07/07 10:19:19;;;;;;;2.47;1.30;;;;;;;29.15;31.51;100514.56;5031359;28;20040;-71
2022/07/07 10:21:47;;;;;;;1.60;1.02;;;;;;;29.18;29.96;100527.88;5036779;28;20048;-71
2022/07/07 10:24:16;;;;;;;1.73;1.20;;;;;;;29.02;29.87;100495.53;5034024;28;20041;-71
2022/07/07 10:26:48;;;;;;;6.05;1.50;;;;;;;29.17;29.98;100521.50;5031474;28;20052;-71
2022/07/07 10:29:13;;;;;;;2.85;1.35;;;;;;;29.12;29.94;100520.59;5040885;28;20029;-71
2022/07/07 10:31:40;;;;;;;2.83;1.35;;;;;;;29.07;29.55;100513.03;5043435;28;20111;-71
2022/07/07 10:34:10;;;;;;;3.17;1.10;;;;;;;29.10;29.11;100520.84;5051164;28;20028;-71
2022/07/07 10:37:17;;;;;;;2.38;1.30;;;;;;;29.02;29.23;100517.63;5046310;28;20021;-71
2022/07/07 10:39:46;;;;;;;1.52;1.42;;;;;;;28.95;29.17;100519.72;5031021;28;20049;-71
2022/07/07 10:42:17;;;;;;;3.97;1.60;;;;;;;28.87;29.72;100515.44;5037748;28;20140;-71
2022/07/07 10:44:45;;;;;;;4.72;1.48;;;;;;;28.85;29.62;100514.00;5049797;28;20086;-71
2022/07/07 10:47:11;;;;;;;3.28;1.10;;;;;;;28.84;29.67;100517.84;5051231;28;20075;-71
2022/07/07 10:49:45;;;;;;;1.83;1.50;;;;;;;28.73;29.56;100502.19;5051001;28;20029;-71
2022/07/07 10:52:14;;;;;;;;;;;;;;;28.72;31.24;100512.38;5051748;28;20040;-71
2022/07/07 10:55:02;;;;;;;5.88;1.60;;;;;;;28.69;31.53;100514.81;5042625;28;20721;-71
2022/07/07 10:57:47;;;;;;;3.45;1.45;;;;;;;28.66;31.33;100507.03;5031240;28;20037;-71
2022/07/07 11:00:27;;;;;;;3.55;1.45;;;;;;;28.65;31.30;100505.31;5030875;28;20029;-71
2022/07/07 11:02:58;;;;;;;4.28;1.50;;;;;;;28.67;31.47;100503.16;5030777;28;20057;-71
2022/07/07 11:05:26;;;;;;;1.30;1.20;;;;;;;28.67;31.30;100501.25;5029414;28;20041;-71
2022/07/07 11:07:58;;;;;;;2.75;1.45;;;;;;;28.74;30.06;100495.56;5030741;28;20116;-71
2022/07/07 11:10:44;;;;;;;1.35;1.15;;;;;;;28.74;29.33;100499.16;5030704;28;20549;-71
2022/07/07 11:13:16;;;;;;;2.35;0.95;;;;;;;28.78;29.69;100491.22;5029249;28;20033;-71
2022/07/07 11:15:46;;;;;;;2.78;1.35;;;;;;;28.87;29.42;100496.09;5030596;28;20396;-71
2022/07/07 11:18:15;;;;;;;2.92;1.02;;;;;;;28.90;29.89;100494.75;5030511;28;20036;-71
2022/07/07 11:20:57;;;;;;;3.88;1.33;;;;;;;28.88;30.16;100489.47;5050410;28;20029;-71
2022/07/07 11:23:25;;;;;;;3.65;1.50;;;;;;;28.88;29.99;100483.13;5042636;28;20114;-71
2022/07/07 11:25:55;;;;;;;5.32;1.58;;;;;;;28.85;29.66;100486.41;5050103;28;20112;-71
2022/07/07 11:28:23;;;;;;;3.50;1.30;;;;;;;28.80;29.57;100483.53;5050332;28;20110;-71